sensor_id;sensor_type;location;lat;lon;timestamp;pressure;altitude;pressure_sealevel;temperature;humidity
49515;BME280;35415;47.870;16.058;2022-07-29T00:00:10;97266.78;;;19.25;69.65
49515;BME280;35415;47.870;16.058;2022-07-29T00:02:37;97255.56;;;19.18;68.98
49515;BME280;35415;47.870;16.058;2022-07-29T00:05:05;97232.34;;;19.03;69.34
49515;BME280;35415;47.870;16.058;2022-07-29T00:07:33;97228.00;;;19.02;68.91
49515;BME280;35415;47.870;16.058;2022-07-29T00:10:00;97261.03;;;19.18;69.66
49515;BME280;35415;47.870;16.058;2022-07-29T00:12:27;97264.09;;;19.16;69.09
49515;BME280;35415;47.870;16.058;2022-07-29T00:14:55;97263.59;;;19.14;69.21
49515;BME280;35415;47.870;16.058;2022-07-29T00:17:22;97263.75;;;19.09;69.91
49515;BME280;35415;47.870;16.058;2022-07-29T00:19:49;97263.28;;;19.07;69.99
49515;BME280;35415;47.870;16.058;2022-07-29T00:22:16;97251.91;;;18.97;69.49
49515;BME280;35415;47.870;16.058;2022-07-29T00:24:47;97249.66;;;18.99;70.04
49515;BME280;35415;47.870;16.058;2022-07-29T00:27:14;97247.25;;;18.88;70.59
49515;BME280;35415;47.870;16.058;2022-07-29T00:29:41;97258.63;;;18.90;70.22
49515;BME280;35415;47.870;16.058;2022-07-29T00:32:08;97228.69;;;18.65;70.27
49515;BME280;35415;47.870;16.058;2022-07-29T00:34:35;97253.22;;;18.82;70.22
49515;BME280;35415;47.870;16.058;2022-07-29T00:37:19;97252.69;;;18.80;70.83
49515;BME280;35415;47.870;16.058;2022-07-29T00:39:50;97241.81;;;18.71;70.25
49515;BME280;35415;47.870;16.058;2022-07-29T00:42:17;97252.06;;;18.74;71.07
49515;BME280;35415;47.870;16.058;2022-07-29T00:44:45;97257.03;;;18.72;71.37
49515;BME280;35415;47.870;16.058;2022-07-29T00:47:12;97226.41;;;18.49;71.44
49515;BME280;35415;47.870;16.058;2022-07-29T00:49:40;97249.34;;;18.66;71.49
49515;BME280;35415;47.870;16.058;2022-07-29T00:52:09;97238.41;;;18.57;71.32
49515;BME280;35415;47.870;16.058;2022-07-29T00:54:38;97242.72;;;18.58;71.43
49515;BME280;35415;47.870;16.058;2022-07-29T00:57:07;97244.81;;;18.61;71.76
49515;BME280;35415;47.870;16.058;2022-07-29T00:59:35;97243.53;;;18.58;71.58
49515;BME280;35415;47.870;16.058;2022-07-29T01:02:02;97235.69;;;18.48;71.86
49515;BME280;35415;47.870;16.058;2022-07-29T01:04:31;97244.03;;;18.52;71.83
49515;BME280;35415;47.870;16.058;2022-07-29T01:06:59;97234.72;;;18.53;71.32
49515;BME280;35415;47.870;16.058;2022-07-29T01:09:27;97215.97;;;18.34;72.41
49515;BME280;35415;47.870;16.058;2022-07-29T01:11:55;97240.47;;;18.43;72.25
49515;BME280;35415;47.870;16.058;2022-07-29T01:14:24;97241.44;;;18.38;72.23
49515;BME280;35415;47.870;16.058;2022-07-29T01:17:04;97221.06;;;18.27;72.34
49515;BME280;35415;47.870;16.058;2022-07-29T01:19:47;97218.03;;;18.28;71.88
49515;BME280;35415;47.870;16.058;2022-07-29T01:22:26;97235.84;;;18.34;72.30
49515;BME280;35415;47.870;16.058;2022-07-29T01:25:08;97201.66;;;18.11;72.29
49515;BME280;35415;47.870;16.058;2022-07-29T01:27:48;97229.41;;;18.30;71.96
49515;BME280;35415;47.870;16.058;2022-07-29T01:30:21;97222.66;;;18.19;72.73
49515;BME280;35415;47.870;16.058;2022-07-29T01:32:52;97224.13;;;18.17;72.65
49515;BME280;35415;47.870;16.058;2022-07-29T01:35:25;97228.75;;;18.16;72.26
49515;BME280;35415;47.870;16.058;2022-07-29T01:37:59;97218.97;;;18.07;72.71
49515;BME280;35415;47.870;16.058;2022-07-29T01:40:31;97236.91;;;18.16;72.93
49515;BME280;35415;47.870;16.058;2022-07-29T01:43:06;97240.25;;;18.13;72.95
49515;BME280;35415;47.870;16.058;2022-07-29T01:45:41;97212.19;;;17.95;73.44
49515;BME280;35415;47.870;16.058;2022-07-29T01:48:13;97238.81;;;18.07;73.65
49515;BME280;35415;47.870;16.058;2022-07-29T01:50:47;97236.72;;;18.04;73.36
49515;BME280;35415;47.870;16.058;2022-07-29T01:53:21;97235.44;;;18.01;73.88
49515;BME280;35415;47.870;16.058;2022-07-29T01:55:53;97239.75;;;18.02;73.48
49515;BME280;35415;47.870;16.058;2022-07-29T01:58:21;97234.16;;;17.99;73.66
49515;BME280;35415;47.870;16.058;2022-07-29T02:00:51;97234.75;;;17.96;73.63
49515;BME280;35415;47.870;16.058;2022-07-29T02:03:21;97236.19;;;17.93;73.67
49515;BME280;35415;47.870;16.058;2022-07-29T02:05:49;97228.69;;;17.90;73.68
49515;BME280;35415;47.870;16.058;2022-07-29T02:08:19;97237.16;;;17.89;73.91
49515;BME280;35415;47.870;16.058;2022-07-29T02:10:47;97232.97;;;17.83;74.05
49515;BME280;35415;47.870;16.058;2022-07-29T02:13:16;97241.25;;;17.78;74.19
49515;BME280;35415;47.870;16.058;2022-07-29T02:15:45;97227.13;;;17.67;74.18
49515;BME280;35415;47.870;16.058;2022-07-29T02:18:16;97253.16;;;17.82;74.28
49515;BME280;35415;47.870;16.058;2022-07-29T02:20:48;97252.63;;;17.80;74.12
49515;BME280;35415;47.870;16.058;2022-07-29T02:23:18;97221.00;;;17.61;74.21
49515;BME280;35415;47.870;16.058;2022-07-29T02:25:48;97255.97;;;17.77;74.44
49515;BME280;35415;47.870;16.058;2022-07-29T02:28:16;97253.53;;;17.66;74.13
49515;BME280;35415;47.870;16.058;2022-07-29T02:30:45;97259.47;;;17.68;74.60
49515;BME280;35415;47.870;16.058;2022-07-29T02:33:15;97257.06;;;17.67;74.32
49515;BME280;35415;47.870;16.058;2022-07-29T02:35:45;97224.94;;;17.47;74.28
49515;BME280;35415;47.870;16.058;2022-07-29T02:38:14;97244.16;;;17.50;74.91
49515;BME280;35415;47.870;16.058;2022-07-29T02:41:01;97236.34;;;17.49;74.86
49515;BME280;35415;47.870;16.058;2022-07-29T02:43:31;97245.88;;;17.46;74.74
49515;BME280;35415;47.870;16.058;2022-07-29T02:46:00;97248.66;;;17.55;74.67
49515;BME280;35415;47.870;16.058;2022-07-29T02:48:36;97242.88;;;17.48;74.50
49515;BME280;35415;47.870;16.058;2022-07-29T02:51:08;97239.53;;;17.51;74.81
49515;BME280;35415;47.870;16.058;2022-07-29T02:53:38;97241.78;;;17.49;75.37
49515;BME280;35415;47.870;16.058;2022-07-29T02:56:11;97246.41;;;17.48;75.39
49515;BME280;35415;47.870;16.058;2022-07-29T02:58:46;97237.06;;;17.40;74.95
49515;BME280;35415;47.870;16.058;2022-07-29T03:01:16;97243.31;;;17.41;75.64
49515;BME280;35415;47.870;16.058;2022-07-29T03:03:46;97228.25;;;17.35;75.29
49515;BME280;35415;47.870;16.058;2022-07-29T03:06:16;97236.72;;;17.33;75.69
49515;BME280;35415;47.870;16.058;2022-07-29T03:08:44;97248.56;;;17.37;76.51
49515;BME280;35415;47.870;16.058;2022-07-29T03:11:13;97243.28;;;17.32;76.12
49515;BME280;35415;47.870;16.058;2022-07-29T03:13:42;97244.69;;;17.30;75.98
49515;BME280;35415;47.870;16.058;2022-07-29T03:16:10;97245.78;;;17.29;75.80
49515;BME280;35415;47.870;16.058;2022-07-29T03:18:38;97238.72;;;17.19;76.12
49515;BME280;35415;47.870;16.058;2022-07-29T03:21:08;97204.22;;;16.97;76.01
49515;BME280;35415;47.870;16.058;2022-07-29T03:23:35;97253.28;;;17.23;76.17
49515;BME280;35415;47.870;16.058;2022-07-29T03:26:02;97250.88;;;17.22;76.50
49515;BME280;35415;47.870;16.058;2022-07-29T03:28:29;97244.78;;;17.16;75.98
49515;BME280;35415;47.870;16.058;2022-07-29T03:30:56;97250.31;;;17.11;76.18
49515;BME280;35415;47.870;16.058;2022-07-29T03:33:23;97213.09;;;16.89;76.26
49515;BME280;35415;47.870;16.058;2022-07-29T03:35:50;97261.88;;;17.17;76.46
49515;BME280;35415;47.870;16.058;2022-07-29T03:38:19;97263.81;;;17.16;76.70
49515;BME280;35415;47.870;16.058;2022-07-29T03:40:51;97249.84;;;17.09;76.64
49515;BME280;35415;47.870;16.058;2022-07-29T03:43:19;97270.09;;;17.25;74.78
49515;BME280;35415;47.870;16.058;2022-07-29T03:45:50;97265.41;;;17.17;76.49
49515;BME280;35415;47.870;16.058;2022-07-29T03:48:20;97229.59;;;16.93;76.44
49515;BME280;35415;47.870;16.058;2022-07-29T03:50:48;97263.59;;;17.12;76.32
49515;BME280;35415;47.870;16.058;2022-07-29T03:53:16;97253.97;;;17.06;76.75
49515;BME280;35415;47.870;16.058;2022-07-29T03:55:50;97259.91;;;17.08;76.41
49515;BME280;35415;47.870;16.058;2022-07-29T03:58:19;97248.19;;;16.99;76.88
49515;BME280;35415;47.870;16.058;2022-07-29T04:00:47;97221.19;;;16.80;76.94
49515;BME280;35415;47.870;16.058;2022-07-29T04:03:14;97260.69;;;17.09;77.10
49515;BME280;35415;47.870;16.058;2022-07-29T04:05:42;97261.50;;;17.09;77.12
49515;BME280;35415;47.870;16.058;2022-07-29T04:08:09;97261.50;;;17.09;77.17
49515;BME280;35415;47.870;16.058;2022-07-29T04:10:37;97263.41;;;17.09;77.06
49515;BME280;35415;47.870;16.058;2022-07-29T04:13:06;97258.47;;;17.11;77.26
49515;BME280;35415;47.870;16.058;2022-07-29T04:15:33;97258.78;;;17.09;77.22
49515;BME280;35415;47.870;16.058;2022-07-29T04:18:00;97244.03;;;17.02;77.31
49515;BME280;35415;47.870;16.058;2022-07-29T04:20:27;97263.09;;;17.10;77.50
49515;BME280;35415;47.870;16.058;2022-07-29T04:22:54;97238.44;;;16.98;77.39
49515;BME280;35415;47.870;16.058;2022-07-29T04:25:21;97254.97;;;17.10;77.49
49515;BME280;35415;47.870;16.058;2022-07-29T04:27:48;97244.22;;;17.05;77.40
49515;BME280;35415;47.870;16.058;2022-07-29T04:30:29;97262.19;;;17.15;77.55
49515;BME280;35415;47.870;16.058;2022-07-29T04:32:57;97252.94;;;17.16;77.51
49515;BME280;35415;47.870;16.058;2022-07-29T04:35:24;97255.34;;;17.18;77.61
49515;BME280;35415;47.870;16.058;2022-07-29T04:37:51;97257.75;;;17.19;77.66
49515;BME280;35415;47.870;16.058;2022-07-29T04:40:18;97231.13;;;17.07;77.67
49515;BME280;35415;47.870;16.058;2022-07-29T04:42:46;97256.81;;;17.24;77.54
49515;BME280;35415;47.870;16.058;2022-07-29T04:45:13;97242.72;;;17.22;77.49
49515;BME280;35415;47.870;16.058;2022-07-29T04:47:41;97259.09;;;17.30;77.41
49515;BME280;35415;47.870;16.058;2022-07-29T04:50:09;97221.44;;;17.15;77.83
49515;BME280;35415;47.870;16.058;2022-07-29T04:52:36;97254.00;;;17.37;77.06
49515;BME280;35415;47.870;16.058;2022-07-29T04:55:05;97256.59;;;17.42;77.42
49515;BME280;35415;47.870;16.058;2022-07-29T04:57:32;97250.53;;;17.45;77.22
49515;BME280;35415;47.870;16.058;2022-07-29T05:00:00;97243.00;;;17.42;77.09
49515;BME280;35415;47.870;16.058;2022-07-29T05:02:27;97232.25;;;17.37;77.10
49515;BME280;35415;47.870;16.058;2022-07-29T05:04:55;97243.47;;;17.44;76.65
49515;BME280;35415;47.870;16.058;2022-07-29T05:07:22;97235.31;;;17.44;76.61
49515;BME280;35415;47.870;16.058;2022-07-29T05:09:49;97262.59;;;17.62;76.61
49515;BME280;35415;47.870;16.058;2022-07-29T05:12:16;97255.75;;;17.64;76.47
49515;BME280;35415;47.870;16.058;2022-07-29T05:14:43;97261.41;;;17.68;76.22
49515;BME280;35415;47.870;16.058;2022-07-29T05:17:10;97246.50;;;17.65;76.50
49515;BME280;35415;47.870;16.058;2022-07-29T05:19:37;97248.47;;;17.73;75.97
49515;BME280;35415;47.870;16.058;2022-07-29T05:22:06;97256.78;;;17.77;75.92
49515;BME280;35415;47.870;16.058;2022-07-29T05:24:33;97256.16;;;17.80;75.63
49515;BME280;35415;47.870;16.058;2022-07-29T05:27:00;97250.22;;;17.78;76.01
49515;BME280;35415;47.870;16.058;2022-07-29T05:29:27;97259.25;;;17.87;75.74
49515;BME280;35415;47.870;16.058;2022-07-29T05:31:54;97238.38;;;17.74;75.54
49515;BME280;35415;47.870;16.058;2022-07-29T05:34:21;97269.66;;;17.94;75.30
49515;BME280;35415;47.870;16.058;2022-07-29T05:36:49;97270.94;;;17.96;75.22
49515;BME280;35415;47.870;16.058;2022-07-29T05:39:18;97251.25;;;17.91;75.74
49515;BME280;35415;47.870;16.058;2022-07-29T05:41:46;97275.63;;;18.04;75.31
49515;BME280;35415;47.870;16.058;2022-07-29T05:44:13;97265.22;;;18.07;75.15
49515;BME280;35415;47.870;16.058;2022-07-29T05:46:40;97280.13;;;18.09;75.03
49515;BME280;35415;47.870;16.058;2022-07-29T05:49:07;97276.44;;;18.14;75.05
49515;BME280;35415;47.870;16.058;2022-07-29T05:51:35;97280.47;;;18.16;75.02
49515;BME280;35415;47.870;16.058;2022-07-29T05:54:02;97272.28;;;18.08;74.84
49515;BME280;35415;47.870;16.058;2022-07-29T05:56:30;97282.72;;;18.23;74.74
49515;BME280;35415;47.870;16.058;2022-07-29T05:58:57;97285.63;;;18.26;74.72
49515;BME280;35415;47.870;16.058;2022-07-29T06:01:25;97281.44;;;18.29;74.69
49515;BME280;35415;47.870;16.058;2022-07-29T06:03:52;97277.31;;;18.31;74.42
49515;BME280;35415;47.870;16.058;2022-07-29T06:06:19;97279.88;;;18.37;74.60
49515;BME280;35415;47.870;16.058;2022-07-29T06:08:46;97274.59;;;18.40;75.13
49515;BME280;35415;47.870;16.058;2022-07-29T06:11:13;97271.06;;;18.40;74.78
49515;BME280;35415;47.870;16.058;2022-07-29T06:13:42;97272.38;;;18.51;75.16
49515;BME280;35415;47.870;16.058;2022-07-29T06:16:09;97278.00;;;18.54;74.27
49515;BME280;35415;47.870;16.058;2022-07-29T06:18:36;97274.78;;;18.61;74.23
49515;BME280;35415;47.870;16.058;2022-07-29T06:21:07;97269.34;;;18.61;73.75
49515;BME280;35415;47.870;16.058;2022-07-29T06:23:35;97273.56;;;18.67;74.08
49515;BME280;35415;47.870;16.058;2022-07-29T06:26:03;97279.47;;;18.78;74.30
49515;BME280;35415;47.870;16.058;2022-07-29T06:28:30;97276.63;;;18.83;73.86
49515;BME280;35415;47.870;16.058;2022-07-29T06:30:59;97276.44;;;18.88;73.28
49515;BME280;35415;47.870;16.058;2022-07-29T06:33:26;97284.13;;;18.94;73.36
49515;BME280;35415;47.870;16.058;2022-07-29T06:35:53;97281.72;;;19.02;73.31
49515;BME280;35415;47.870;16.058;2022-07-29T06:38:20;97282.03;;;19.09;73.57
49515;BME280;35415;47.870;16.058;2022-07-29T06:40:47;97287.31;;;19.14;73.23
49515;BME280;35415;47.870;16.058;2022-07-29T06:43:28;97284.91;;;19.21;72.90
49515;BME280;35415;47.870;16.058;2022-07-29T06:45:59;97282.66;;;19.32;73.12
49515;BME280;35415;47.870;16.058;2022-07-29T06:48:27;97279.78;;;19.37;72.38
49515;BME280;35415;47.870;16.058;2022-07-29T06:50:55;97281.50;;;19.41;72.42
49515;BME280;35415;47.870;16.058;2022-07-29T06:53:22;97280.56;;;19.55;72.28
49515;BME280;35415;47.870;16.058;2022-07-29T06:55:49;97283.25;;;19.63;72.11
49515;BME280;35415;47.870;16.058;2022-07-29T06:58:16;97285.97;;;19.72;71.72
49515;BME280;35415;47.870;16.058;2022-07-29T07:00:46;97275.50;;;19.82;71.78
49515;BME280;35415;47.870;16.058;2022-07-29T07:03:15;97274.03;;;19.85;71.70
49515;BME280;35415;47.870;16.058;2022-07-29T07:05:43;97268.53;;;19.94;70.75
49515;BME280;35415;47.870;16.058;2022-07-29T07:08:10;97266.53;;;20.11;70.32
49515;BME280;35415;47.870;16.058;2022-07-29T07:10:37;97278.69;;;20.23;69.92
49515;BME280;35415;47.870;16.058;2022-07-29T07:13:05;97276.38;;;20.33;70.15
49515;BME280;35415;47.870;16.058;2022-07-29T07:15:32;97261.41;;;20.39;69.68
49515;BME280;35415;47.870;16.058;2022-07-29T07:17:59;97259.59;;;20.52;71.61
49515;BME280;35415;47.870;16.058;2022-07-29T07:20:28;97264.78;;;20.66;70.67
49515;BME280;35415;47.870;16.058;2022-07-29T07:22:55;97269.50;;;20.78;71.25
49515;BME280;35415;47.870;16.058;2022-07-29T07:25:22;97260.13;;;20.87;71.36
49515;BME280;35415;47.870;16.058;2022-07-29T07:27:49;97264.97;;;21.02;70.50
49515;BME280;35415;47.870;16.058;2022-07-29T07:30:16;97264.22;;;21.14;70.41
49515;BME280;35415;47.870;16.058;2022-07-29T07:32:43;97259.16;;;21.25;69.18
49515;BME280;35415;47.870;16.058;2022-07-29T07:35:10;97252.94;;;21.37;69.56
49515;BME280;35415;47.870;16.058;2022-07-29T07:37:39;97256.03;;;21.47;68.63
49515;BME280;35415;47.870;16.058;2022-07-29T07:40:08;97262.09;;;21.65;67.95
49515;BME280;35415;47.870;16.058;2022-07-29T07:42:37;97235.88;;;21.64;67.55
49515;BME280;35415;47.870;16.058;2022-07-29T07:45:04;97254.41;;;21.91;67.69
49515;BME280;35415;47.870;16.058;2022-07-29T07:47:32;97252.97;;;22.06;67.10
49515;BME280;35415;47.870;16.058;2022-07-29T07:49:59;97253.88;;;22.23;66.71
49515;BME280;35415;47.870;16.058;2022-07-29T07:52:26;97253.06;;;22.34;65.79
49515;BME280;35415;47.870;16.058;2022-07-29T07:54:56;97235.13;;;22.37;64.94
49515;BME280;35415;47.870;16.058;2022-07-29T07:57:23;97252.06;;;22.67;64.79
49515;BME280;35415;47.870;16.058;2022-07-29T07:59:50;97252.19;;;22.83;65.03
49515;BME280;35415;47.870;16.058;2022-07-29T08:02:17;97254.63;;;23.00;64.85
49515;BME280;35415;47.870;16.058;2022-07-29T08:04:44;97253.44;;;23.13;64.32
49515;BME280;35415;47.870;16.058;2022-07-29T08:07:11;97258.53;;;23.27;63.24
49515;BME280;35415;47.870;16.058;2022-07-29T08:09:41;97253.09;;;23.42;63.02
49515;BME280;35415;47.870;16.058;2022-07-29T08:12:09;97252.13;;;23.51;61.99
49515;BME280;35415;47.870;16.058;2022-07-29T08:14:36;97265.22;;;23.69;62.27
49515;BME280;35415;47.870;16.058;2022-07-29T08:17:03;97255.84;;;23.86;60.36
49515;BME280;35415;47.870;16.058;2022-07-29T08:19:30;97251.47;;;24.01;60.75
49515;BME280;35415;47.870;16.058;2022-07-29T08:21:57;97254.69;;;24.19;59.84
49515;BME280;35415;47.870;16.058;2022-07-29T08:24:24;97254.84;;;24.26;60.99
49515;BME280;35415;47.870;16.058;2022-07-29T08:27:13;97256.22;;;24.51;60.18
49515;BME280;35415;47.870;16.058;2022-07-29T08:29:40;97245.03;;;24.60;59.34
49515;BME280;35415;47.870;16.058;2022-07-29T08:32:07;97243.31;;;24.71;58.65
49515;BME280;35415;47.870;16.058;2022-07-29T08:34:34;97256.66;;;24.88;58.36
49515;BME280;35415;47.870;16.058;2022-07-29T08:37:01;97253.50;;;25.06;58.29
49515;BME280;35415;47.870;16.058;2022-07-29T08:39:28;97254.59;;;25.21;58.17
49515;BME280;35415;47.870;16.058;2022-07-29T08:41:55;97262.69;;;25.33;57.33
49515;BME280;35415;47.870;16.058;2022-07-29T08:44:24;97244.84;;;25.46;56.95
49515;BME280;35415;47.870;16.058;2022-07-29T08:46:52;97248.22;;;25.59;56.36
49515;BME280;35415;47.870;16.058;2022-07-29T08:49:19;97245.34;;;25.71;56.56
49515;BME280;35415;47.870;16.058;2022-07-29T08:51:46;97248.78;;;25.87;55.07
49515;BME280;35415;47.870;16.058;2022-07-29T08:54:16;97241.03;;;25.96;56.26
49515;BME280;35415;47.870;16.058;2022-07-29T08:56:45;97245.56;;;26.08;54.36
49515;BME280;35415;47.870;16.058;2022-07-29T08:59:16;97250.53;;;26.22;54.43
49515;BME280;35415;47.870;16.058;2022-07-29T09:01:48;97255.09;;;26.37;54.84
49515;BME280;35415;47.870;16.058;2022-07-29T09:04:16;97215.91;;;26.24;52.50
49515;BME280;35415;47.870;16.058;2022-07-29T09:06:48;97210.63;;;26.38;53.28
49515;BME280;35415;47.870;16.058;2022-07-29T09:09:17;97236.53;;;26.60;51.88
49515;BME280;35415;47.870;16.058;2022-07-29T09:11:45;97240.13;;;26.64;51.81
49515;BME280;35415;47.870;16.058;2022-07-29T09:14:14;97244.41;;;26.88;52.16
49515;BME280;35415;47.870;16.058;2022-07-29T09:16:52;97226.19;;;26.84;52.72
49515;BME280;35415;47.870;16.058;2022-07-29T09:19:30;97248.28;;;27.14;52.50
49515;BME280;35415;47.870;16.058;2022-07-29T09:22:00;97248.88;;;27.30;51.10
49515;BME280;35415;47.870;16.058;2022-07-29T09:24:37;97157.13;;;26.77;51.61
49515;BME280;35415;47.870;16.058;2022-07-29T09:27:19;97263.38;;;27.57;51.65
49515;BME280;35415;47.870;16.058;2022-07-29T09:29:47;97244.63;;;27.73;49.32
49515;BME280;35415;47.870;16.058;2022-07-29T09:32:18;97137.84;;;27.14;49.77
49515;BME280;35415;47.870;16.058;2022-07-29T09:34:45;97176.47;;;27.51;48.97
49515;BME280;35415;47.870;16.058;2022-07-29T09:37:26;97175.84;;;27.65;49.14
49515;BME280;35415;47.870;16.058;2022-07-29T09:39:53;97137.91;;;27.62;47.38
49515;BME280;35415;47.870;16.058;2022-07-29T09:42:28;97216.94;;;28.17;47.90
49515;BME280;35415;47.870;16.058;2022-07-29T09:44:58;97142.03;;;27.78;46.14
49515;BME280;35415;47.870;16.058;2022-07-29T09:47:41;97227.47;;;28.49;48.27
49515;BME280;35415;47.870;16.058;2022-07-29T09:50:10;97231.13;;;28.64;47.39
49515;BME280;35415;47.870;16.058;2022-07-29T09:52:46;97185.56;;;28.47;47.47
49515;BME280;35415;47.870;16.058;2022-07-29T09:55:18;97228.06;;;28.83;45.12
49515;BME280;35415;47.870;16.058;2022-07-29T09:57:47;97232.13;;;29.00;45.66
49515;BME280;35415;47.870;16.058;2022-07-29T10:00:16;97189.69;;;28.82;45.74
49515;BME280;35415;47.870;16.058;2022-07-29T10:02:47;97119.16;;;28.43;45.42
49515;BME280;35415;47.870;16.058;2022-07-29T10:05:21;97156.06;;;28.72;44.58
49515;BME280;35415;47.870;16.058;2022-07-29T10:07:54;97243.72;;;29.27;43.98
49515;BME280;35415;47.870;16.058;2022-07-29T10:10:24;97139.00;;;28.67;43.37
49515;BME280;35415;47.870;16.058;2022-07-29T10:12:53;97123.19;;;28.60;43.52
49515;BME280;35415;47.870;16.058;2022-07-29T10:15:24;97101.38;;;28.48;43.20
49515;BME280;35415;47.870;16.058;2022-07-29T10:17:56;97127.94;;;28.67;42.94
49515;BME280;35415;47.870;16.058;2022-07-29T10:20:24;97151.72;;;28.82;41.54
49515;BME280;35415;47.870;16.058;2022-07-29T10:22:54;97174.34;;;28.98;43.77
49515;BME280;35415;47.870;16.058;2022-07-29T10:25:29;97212.44;;;29.37;44.27
49515;BME280;35415;47.870;16.058;2022-07-29T10:28:06;97175.19;;;29.10;43.89
49515;BME280;35415;47.870;16.058;2022-07-29T10:30:33;97165.69;;;29.07;43.61
49515;BME280;35415;47.870;16.058;2022-07-29T10:33:20;97117.31;;;28.72;43.68
49515;BME280;35415;47.870;16.058;2022-07-29T10:38:50;97086.81;;;28.58;44.28
49515;BME280;35415;47.870;16.058;2022-07-29T10:41:39;97110.16;;;28.68;44.95
49515;BME280;35415;47.870;16.058;2022-07-29T10:44:15;97167.25;;;29.04;43.54
49515;BME280;35415;47.870;16.058;2022-07-29T10:46:52;97213.25;;;29.34;44.10
49515;BME280;35415;47.870;16.058;2022-07-29T10:49:23;97164.47;;;28.97;44.03
49515;BME280;35415;47.870;16.058;2022-07-29T10:52:06;97174.34;;;28.95;44.63
49515;BME280;35415;47.870;16.058;2022-07-29T10:54:43;97216.41;;;29.36;45.39
49515;BME280;35415;47.870;16.058;2022-07-29T10:57:20;97178.63;;;28.85;44.06
49515;BME280;35415;47.870;16.058;2022-07-29T11:00:25;97100.91;;;28.28;42.20
49515;BME280;35415;47.870;16.058;2022-07-29T11:02:44;97161.53;;;28.65;42.87
49515;BME280;35415;47.870;16.058;2022-07-29T11:05:21;97203.53;;;28.85;44.57
49515;BME280;35415;47.870;16.058;2022-07-29T11:10:53;97150.59;;;28.21;45.33
49515;BME280;35415;47.870;16.058;2022-07-29T11:13:48;97220.81;;;28.57;46.12
49515;BME280;35415;47.870;16.058;2022-07-29T11:16:23;97087.69;;;27.52;46.09
49515;BME280;35415;47.870;16.058;2022-07-29T11:19:19;97227.75;;;28.33;46.65
49515;BME280;35415;47.870;16.058;2022-07-29T11:21:48;97105.75;;;27.39;46.64
49515;BME280;35415;47.870;16.058;2022-07-29T11:24:19;97181.88;;;27.74;46.83
49515;BME280;35415;47.870;16.058;2022-07-29T11:27:08;97221.69;;;28.17;47.17
49515;BME280;35415;47.870;16.058;2022-07-29T11:29:39;97136.13;;;27.39;48.35
49515;BME280;35415;47.870;16.058;2022-07-29T11:32:11;97170.16;;;27.50;49.48
49515;BME280;35415;47.870;16.058;2022-07-29T11:34:40;97171.69;;;27.44;49.66
49515;BME280;35415;47.870;16.058;2022-07-29T11:37:25;97216.50;;;27.64;50.09
49515;BME280;35415;47.870;16.058;2022-07-29T11:40:08;97089.78;;;26.85;50.54
49515;BME280;35415;47.870;16.058;2022-07-29T11:42:46;97160.81;;;27.21;50.48
49515;BME280;35415;47.870;16.058;2022-07-29T11:45:25;97153.66;;;27.17;51.31
49515;BME280;35415;47.870;16.058;2022-07-29T11:47:59;97154.00;;;27.12;51.61
49515;BME280;35415;47.870;16.058;2022-07-29T11:50:29;97083.59;;;26.58;51.07
49515;BME280;35415;47.870;16.058;2022-07-29T11:52:59;97207.91;;;27.36;51.16
49515;BME280;35415;47.870;16.058;2022-07-29T11:55:27;97142.38;;;26.95;50.99
49515;BME280;35415;47.870;16.058;2022-07-29T11:57:59;97136.84;;;26.95;50.48
49515;BME280;35415;47.870;16.058;2022-07-29T12:00:32;97184.59;;;27.33;50.81
49515;BME280;35415;47.870;16.058;2022-07-29T12:03:01;97068.63;;;26.59;50.72
49515;BME280;35415;47.870;16.058;2022-07-29T12:05:44;97068.59;;;26.55;51.43
49515;BME280;35415;47.870;16.058;2022-07-29T12:08:17;97079.66;;;26.59;51.91
49515;BME280;35415;47.870;16.058;2022-07-29T12:10:48;97136.88;;;26.99;52.29
49515;BME280;35415;47.870;16.058;2022-07-29T12:13:17;97142.94;;;27.08;53.50
49515;BME280;35415;47.870;16.058;2022-07-29T12:15:52;97075.63;;;26.53;53.48
49515;BME280;35415;47.870;16.058;2022-07-29T12:18:20;97156.56;;;26.97;54.91
49515;BME280;35415;47.870;16.058;2022-07-29T12:20:49;97098.22;;;26.62;54.68
49515;BME280;35415;47.870;16.058;2022-07-29T12:23:26;97113.63;;;26.66;53.95
49515;BME280;35415;47.870;16.058;2022-07-29T12:25:54;97149.84;;;26.95;53.88
49515;BME280;35415;47.870;16.058;2022-07-29T12:28:22;97205.31;;;27.16;54.84
49515;BME280;35415;47.870;16.058;2022-07-29T12:30:50;97140.94;;;26.75;55.18
49515;BME280;35415;47.870;16.058;2022-07-29T12:33:21;97128.53;;;26.58;55.31
49515;BME280;35415;47.870;16.058;2022-07-29T12:35:50;97081.53;;;26.21;56.61
49515;BME280;35415;47.870;16.058;2022-07-29T12:38:19;97134.81;;;26.55;57.59
49515;BME280;35415;47.870;16.058;2022-07-29T12:40:51;97050.41;;;25.91;57.00
49515;BME280;35415;47.870;16.058;2022-07-29T12:43:22;97126.66;;;26.36;58.07
49515;BME280;35415;47.870;16.058;2022-07-29T12:45:51;97147.13;;;26.35;59.20
49515;BME280;35415;47.870;16.058;2022-07-29T12:48:33;97196.75;;;26.61;58.74
49515;BME280;35415;47.870;16.058;2022-07-29T12:51:01;97143.28;;;26.17;58.59
49515;BME280;35415;47.870;16.058;2022-07-29T12:53:29;97126.47;;;25.95;59.53
49515;BME280;35415;47.870;16.058;2022-07-29T12:55:59;97074.59;;;25.52;59.36
49515;BME280;35415;47.870;16.058;2022-07-29T12:58:30;97076.34;;;25.37;58.29
49515;BME280;35415;47.870;16.058;2022-07-29T13:01:05;97069.81;;;25.22;58.62
49515;BME280;35415;47.870;16.058;2022-07-29T13:03:45;97097.56;;;25.36;58.69
49515;BME280;35415;47.870;16.058;2022-07-29T13:06:34;97229.78;;;26.05;60.26
49515;BME280;35415;47.870;16.058;2022-07-29T13:09:08;97204.44;;;25.73;61.53
49515;BME280;35415;47.870;16.058;2022-07-29T13:11:38;97101.44;;;24.89;61.42